Latest Weather Observations for Spring Bay

IDT60801

Issued at 2:35 pm EST Sunday 20 April 2014 (issued every 30 minutes, with the page automatically refreshed every 10 minutes)

About weather observations | Map of weather stations | Latest weather observations for TAS | Other Formats
Station Details ID: 092133 Name: SPRING BAY NTC AWS Lat: -42.55 Lon: 147.93 Height: 0.0 m
Data from the previous 72 hours. | See also: Recent months for locations in Tasmania
Date/Time
EST
Temp
°C
App
Temp
°C
Dew
Point
Rel
Hum
%
Delta-T
°C
Wind Press
QNH
hPa
Press
MSL
hPa
Rain
since 9 am
mm
Dir
 
Spd
km/h
Gust
km/h
Spd
kts
Gust
kts
20/02:30pm 17.3 - - - - NW 24 37 13 20 1007.1 - -
20/02:00pm 17.0 - - - - WNW 26 37 14 20 1007.1 1007.1 -
20/01:30pm 16.5 - - - - NW 24 35 13 19 1007.4 - -
20/01:00pm 15.6 - - - - NW 24 30 13 16 1007.9 1007.9 -
20/12:30pm 14.7 - - - - NW 26 32 14 17 1008.5 - -
20/12:00pm 14.3 - - - - WNW 28 35 15 19 1009.0 1009.0 -
20/11:30am 14.3 - - - - NW 24 30 13 16 1009.4 - -
20/11:00am 13.5 - - - - NNW 22 28 12 15 1009.6 1009.6 -
20/10:30am 12.5 - - - - NW 24 30 13 16 1010.2 - -
20/10:00am 12.6 - - - - NW 24 41 13 22 1010.8 1010.8 -
20/09:30am 10.6 - - - - W 2 7 1 4 1011.1 - -
20/09:00am 10.4 - - - - WSW 7 13 4 7 1011.4 1011.4 -
20/08:30am 10.0 - - - - NW 19 26 10 14 1011.6 - -
20/08:00am 9.4 - - - - NNW 20 28 11 15 1011.7 1011.7 -
20/07:30am 9.5 - - - - NNW 19 26 10 14 1011.7 - -
20/07:00am 8.7 - - - - W 6 11 3 6 1011.8 1011.8 -
20/06:30am 9.2 - - - - NW 9 15 5 8 1011.5 - -
20/06:00am 8.6 - - - - W 6 13 3 7 1011.5 1011.5 -
20/05:30am 9.1 - - - - WNW 9 13 5 7 1011.5 - -
20/05:00am 10.2 - - - - NW 11 17 6 9 1011.7 1011.7 -
20/04:30am 11.0 - - - - WNW 15 19 8 10 1011.9 - -
20/04:00am 10.8 - - - - WNW 15 20 8 11 1012.0 1012.0 -
20/03:30am 10.6 - - - - W 17 26 9 14 1012.2 - -
20/03:00am 10.8 - - - - WSW 26 33 14 18 1012.4 1012.4 -
20/02:30am 10.5 - - - - WSW 19 26 10 14 1012.6 - -
20/02:00am 11.1 - - - - WSW 19 30 10 16 1012.8 1012.8 -
20/01:30am 10.9 - - - - W 20 32 11 17 1013.0 - -
20/01:00am 10.9 - - - - W 13 17 7 9 1013.4 1013.4 -
20/12:30am 10.9 - - - - W 19 22 10 12 1013.4 - -
20/12:00am 11.1 - - - - WNW 13 19 7 10 1013.7 1013.7 -
 
Date/Time
EST
Temp
°C
App
Temp
°C
Dew
Point
Rel
Hum
%
Delta-T
°C
Wind Press
QNH
hPa
Press
MSL
hPa
Rain
since 9 am
mm
Dir
 
Spd
km/h
Gust
km/h
Spd
kts
Gust
kts
19/11:30pm 11.2 - - - - W 11 17 6 9 1013.9 - -
19/11:00pm 11.5 - - - - NW 11 17 6 9 1014.4 1014.4 -
19/10:30pm 10.7 - - - - WNW 11 15 6 8 1014.6 - -
19/10:00pm 10.9 - - - - NW 9 13 5 7 1014.8 1014.8 -
19/09:30pm 12.1 - - - - SSW 11 15 6 8 1014.8 - -
19/09:00pm 12.4 - - - - SW 11 15 6 8 1014.9 1014.9 -
19/08:30pm 12.6 - - - - WSW 11 15 6 8 1014.9 - -
19/08:00pm 12.6 - - - - WSW 11 15 6 8 1014.9 1014.9 -
19/07:30pm 12.7 - - - - WSW 11 15 6 8 1014.9 - -
19/07:00pm 12.8 - - - - S 11 15 6 8 1014.7 1014.7 -
19/06:30pm 12.8 - - - - SSE 15 19 8 10 1014.6 - -
19/06:00pm 13.3 - - - - S 9 17 5 9 1014.4 1014.4 -
19/05:30pm 13.6 - - - - W 4 9 2 5 1014.3 - -
19/05:00pm 13.7 - - - - SSW 7 9 4 5 1014.3 1014.3 -
19/04:30pm 13.6 - - - - S 7 11 4 6 1014.3 - -
19/04:00pm 13.8 - - - - S 13 19 7 10 1014.2 1014.2 -
19/03:30pm 13.9 - - - - SSW 17 28 9 15 1014.1 - -
19/03:00pm 14.1 - - - - SSW 19 26 10 14 1014.0 1014.0 -
19/02:30pm 14.2 - - - - SSW 28 33 15 18 1014.1 - -
19/02:00pm 14.1 - - - - S 32 41 17 22 1014.1 1014.1 -
19/01:30pm 14.0 - - - - S 24 30 13 16 1014.0 - -
19/01:00pm 14.2 - - - - SSW 28 41 15 22 1014.2 1014.2 -
19/12:30pm 14.3 - - - - SW 33 46 18 25 1014.6 - -
19/12:22pm 14.2 - - - - SSW 28 46 15 25 1014.8 - -
19/12:00pm 14.0 - - - - SW 35 46 19 25 1014.9 1014.9 -
19/11:30am 13.9 - - - - SW 39 48 21 26 1014.9 - -
19/11:00am 13.4 - - - - SSW 35 46 19 25 1015.1 1015.1 -
19/10:30am 13.4 - - - - SW 37 48 20 26 1015.0 - -
19/10:00am 12.8 - - - - SSW 35 48 19 26 1015.2 1015.2 -
19/09:30am 12.6 - - - - SW 32 44 17 24 1015.2 - -
19/09:16am 12.4 - - - - WSW 28 46 15 25 1015.1 - -
19/09:00am 12.0 - - - - SW 28 41 15 22 1014.9 1014.9 -
19/08:30am 11.7 - - - - WSW 24 33 13 18 1015.1 - -
19/08:00am 11.2 - - - - SW 17 24 9 13 1015.0 1015.0 -
19/07:30am 10.7 - - - - SW 17 24 9 13 1014.7 - -
19/07:00am 10.5 - - - - SW 15 22 8 12 1014.4 1014.4 -
19/06:30am 10.6 - - - - SW 17 24 9 13 1014.1 - -
19/06:00am 10.5 - - - - SW 17 22 9 12 1013.8 1013.8 -
19/05:30am 10.6 - - - - WSW 17 22 9 12 1013.5 - -
19/05:00am 10.8 - - - - WSW 17 24 9 13 1013.2 1013.2 -
19/04:30am 11.2 - - - - SW 17 28 9 15 1013.2 - -
19/04:00am 11.1 - - - - SW 20 28 11 15 1013.2 1013.2 -
19/03:30am 11.4 - - - - SW 24 30 13 16 1013.0 - -
19/03:00am 11.4 - - - - SW 26 37 14 20 1012.8 1012.8 -
19/02:30am 11.4 - - - - SW 26 39 14 21 1012.8 - -
19/02:00am 11.7 - - - - SW 26 33 14 18 1012.7 1012.7 -
19/01:30am 12.0 - - - - SW 33 43 18 23 1012.6 - -
19/01:00am 11.9 - - - - SW 32 39 17 21 1012.4 1012.4 -
19/12:30am 12.1 - - - - SW 26 37 14 20 1012.5 - -
19/12:00am 12.3 - - - - SSW 26 35 14 19 1012.5 1012.5 -
 
Date/Time
EST
Temp
°C
App
Temp
°C
Dew
Point
Rel
Hum
%
Delta-T
°C
Wind Press
QNH
hPa
Press
MSL
hPa
Rain
since 9 am
mm
Dir
 
Spd
km/h
Gust
km/h
Spd
kts
Gust
kts
18/11:30pm 12.4 - - - - SSW 24 33 13 18 1012.5 - -
18/11:00pm 12.4 - - - - SSW 20 26 11 14 1012.4 1012.4 -
18/10:30pm 12.0 - - - - SW 24 32 13 17 1012.2 - -
18/10:00pm 12.2 - - - - SW 26 32 14 17 1012.2 1012.2 -
18/09:30pm 12.3 - - - - SW 20 26 11 14 1012.1 - -
18/09:00pm 12.5 - - - - SW 20 28 11 15 1011.9 1011.9 -
18/08:30pm 12.8 - - - - SW 20 28 11 15 1011.6 - -
18/08:00pm 13.0 - - - - SW 24 32 13 17 1011.3 1011.3 -
18/07:30pm 12.7 - - - - WSW 15 20 8 11 1011.0 - -
18/07:00pm 13.1 - - - - SW 22 30 12 16 1010.6 1010.6 -
18/06:30pm 13.7 - - - - SSW 24 33 13 18 1010.3 - -
18/06:00pm 14.0 - - - - SSW 28 37 15 20 1009.9 1009.9 -
18/05:30pm 14.4 - - - - SSW 28 41 15 22 1009.5 - -
18/05:00pm 14.7 - - - - SSW 26 33 14 18 1008.8 1008.8 -
18/04:30pm 15.0 - - - - S 24 32 13 17 1008.3 - -
18/04:00pm 15.2 - - - - SSW 28 39 15 21 1007.9 1007.9 -
18/03:30pm 14.9 - - - - SSW 33 44 18 24 1007.6 - -
18/03:00pm 14.4 - - - - SW 26 37 14 20 1007.6 1007.6 -
18/02:30pm 14.4 - - - - SW 32 39 17 21 1007.2 - -
18/02:00pm 14.3 - - - - SSW 32 46 17 25 1007.3 1007.3 -
18/01:30pm 13.8 - - - - SSW 19 26 10 14 1007.4 - -
18/01:00pm 13.9 - - - - WSW 17 26 9 14 1007.5 1007.5 -
18/12:30pm 14.2 - - - - SSW 17 26 9 14 1007.2 - -
18/12:00pm 13.6 - - - - WSW 22 33 12 18 1007.3 1007.3 -
18/11:30am 13.5 - - - - WSW 33 48 18 26 1007.7 - -
18/11:26am 13.4 - - - - WSW 30 48 16 26 1007.8 - -
18/11:09am 13.6 - - - - SW 37 48 20 26 1007.8 - -
18/11:00am 17.5 - - - - W 28 48 15 26 1007.7 1007.7 -
18/10:30am 18.0 - - - - NW 26 35 14 19 1006.6 - -
18/10:00am 17.2 - - - - N 17 24 9 13 1006.6 1006.6 -
18/09:30am 15.9 - - - - NNE 9 15 5 8 1007.2 - -
18/09:00am 16.1 - - - - N 15 22 8 12 1007.8 1007.8 -
18/08:30am 15.3 - - - - N 17 24 9 13 1008.4 - -
18/08:00am 15.4 - - - - N 20 26 11 14 1008.6 1008.6 -
18/07:30am 15.1 - - - - N 24 26 13 14 1009.1 - -
18/07:00am 15.2 - - - - NNW 22 32 12 17 1009.3 1009.3 -
18/06:30am 13.8 - - - - NNW 6 9 3 5 1009.7 - -
18/06:00am 14.4 - - - - N 11 19 6 10 1010.1 1010.1 -
18/05:30am 15.0 - - - - NNW 19 30 10 16 1010.3 - -
18/05:00am 15.1 - - - - NNW 22 30 12 16 1010.5 1010.5 -
18/04:30am 14.8 - - - - NNW 17 24 9 13 1011.2 - -
18/04:00am 14.8 - - - - NNW 17 22 9 12 1011.5 1011.5 -
18/03:30am 14.6 - - - - NNW 20 24 11 13 1011.8 - -
18/03:00am 14.8 - - - - NNW 22 26 12 14 1012.3 1012.3 -
18/02:30am 15.3 - - - - NNW 20 26 11 14 1012.6 - -
18/02:00am 14.7 - - - - N 13 20 7 11 1013.1 1013.1 -
18/01:30am 15.4 - - - - NW 9 15 5 8 1013.5 - -
18/01:00am 15.5 - - - - NW 11 19 6 10 1014.0 1014.0 -

Other Formats:

Comma delimited format used in spreadsheet applications
http://www.bom.gov.au/fwo/IDT60801/IDT60801.95987.axf

JavaScript Object Notation format (JSON) in row-major order
http://www.bom.gov.au/fwo/IDT60801/IDT60801.95987.json